createdAt,value
2022-12-16T00:01:24.236Z,27.63
2022-12-16T00:03:52.804Z,27.92
2022-12-16T00:06:23.444Z,26.45
2022-12-16T00:08:50.461Z,24.90
2022-12-16T00:11:19.767Z,30.83
2022-12-16T00:13:47.831Z,27.33
2022-12-16T00:16:17.123Z,27.85
2022-12-16T00:18:44.650Z,30.20
2022-12-16T00:21:12.167Z,29.05
2022-12-16T00:23:41.593Z,29.75
2022-12-16T00:26:09.077Z,32.92
2022-12-16T00:28:35.940Z,28.55
2022-12-16T00:31:02.890Z,29.23
2022-12-16T00:33:30.699Z,30.73
2022-12-16T00:35:57.893Z,29.52
2022-12-16T00:38:26.924Z,31.83
2022-12-16T00:40:53.734Z,31.50
2022-12-16T00:43:20.908Z,28.85
2022-12-16T00:45:48.580Z,30.05
2022-12-16T00:48:15.660Z,28.40
2022-12-16T00:50:49.050Z,33.10
2022-12-16T00:53:15.816Z,31.95
2022-12-16T00:55:42.695Z,29.15
2022-12-16T00:58:09.477Z,26.92
2022-12-16T01:00:36.403Z,29.35
2022-12-16T01:03:03.352Z,29.30
2022-12-16T01:05:30.208Z,29.58
2022-12-16T01:07:57.214Z,33.40
2022-12-16T01:10:25.298Z,31.80
2022-12-16T01:12:52.434Z,31.50
2022-12-16T01:15:19.662Z,29.17
2022-12-16T01:17:47.040Z,30.35
2022-12-16T01:20:14.296Z,28.05
2022-12-16T01:22:41.698Z,33.38
2022-12-16T01:25:11.311Z,28.00
2022-12-16T01:27:38.084Z,29.83
2022-12-16T01:30:05.459Z,28.70
2022-12-16T01:32:32.363Z,30.00
2022-12-16T01:34:59.180Z,31.83
2022-12-16T01:37:26.078Z,28.85
2022-12-16T01:39:52.814Z,28.05
2022-12-16T01:42:23.476Z,30.85
2022-12-16T01:44:52.173Z,30.60
2022-12-16T01:47:30.588Z,33.08
2022-12-16T01:50:07.498Z,30.00
2022-12-16T01:52:40.221Z,27.40
2022-12-16T01:55:12.888Z,31.15
2022-12-16T01:57:51.771Z,29.65
2022-12-16T02:00:22.406Z,29.77
2022-12-16T02:02:51.288Z,29.63
2022-12-16T02:05:21.306Z,28.98
2022-12-16T02:08:07.102Z,32.72
2022-12-16T02:11:06.073Z,30.52
2022-12-16T02:13:51.545Z,28.67
2022-12-16T02:16:32.161Z,28.50
2022-12-16T02:18:58.850Z,31.67
2022-12-16T02:21:28.567Z,24.60
2022-12-16T02:24:10.292Z,29.95
2022-12-16T02:26:55.753Z,29.15
2022-12-16T02:29:53.443Z,29.13
2022-12-16T02:32:41.948Z,29.95
2022-12-16T02:35:36.094Z,30.75
2022-12-16T02:38:22.364Z,29.50
2022-12-16T02:41:02.571Z,30.80
2022-12-16T02:43:48.660Z,30.98
2022-12-16T02:46:16.198Z,29.88
2022-12-16T02:48:42.954Z,27.08
2022-12-16T02:51:10.008Z,30.25
2022-12-16T02:53:39.405Z,28.65
2022-12-16T02:56:25.138Z,28.25
2022-12-16T02:59:16.436Z,29.73
2022-12-16T03:02:06.036Z,30.92
2022-12-16T03:05:16.752Z,28.08
2022-12-16T03:07:45.009Z,29.25
2022-12-16T03:10:17.340Z,30.08
2022-12-16T03:12:46.046Z,29.75
2022-12-16T03:15:17.410Z,27.88
2022-12-16T03:17:47.064Z,25.88
2022-12-16T03:20:28.162Z,28.95
2022-12-16T03:22:59.348Z,28.60
2022-12-16T03:25:28.219Z,28.40
2022-12-16T03:28:28.030Z,28.73
2022-12-16T03:31:09.049Z,29.77
2022-12-16T03:33:42.765Z,31.20
2022-12-16T03:36:22.606Z,29.70
2022-12-16T03:38:51.215Z,29.60
2022-12-16T03:41:19.560Z,29.95
2022-12-16T03:43:46.713Z,29.27
2022-12-16T03:46:14.705Z,31.35
2022-12-16T03:48:50.095Z,32.15
2022-12-16T03:51:17.782Z,31.35
2022-12-16T03:53:45.343Z,32.75
2022-12-16T03:56:12.788Z,31.67
2022-12-16T03:58:42.833Z,25.92
2022-12-16T04:01:10.477Z,26.20
2022-12-16T04:03:38.106Z,26.42
2022-12-16T04:06:05.776Z,26.90
2022-12-16T04:08:32.592Z,24.20
2022-12-16T04:11:18.056Z,24.50
2022-12-16T04:14:03.593Z,25.35
2022-12-16T04:16:49.398Z,24.92
2022-12-16T04:19:44.579Z,24.30
2022-12-16T04:22:37.320Z,27.15
2022-12-16T04:25:12.196Z,25.88
2022-12-16T04:27:39.024Z,23.30
2022-12-16T04:30:21.967Z,25.33
2022-12-16T04:33:17.955Z,23.85
2022-12-16T04:36:03.872Z,24.95
2022-12-16T04:38:49.533Z,23.27
2022-12-16T04:41:35.017Z,25.85
2022-12-16T04:44:20.412Z,23.02
2022-12-16T04:47:06.265Z,23.90
2022-12-16T04:49:51.770Z,24.67
2022-12-16T04:52:37.772Z,25.95
2022-12-16T04:55:24.253Z,24.95
2022-12-16T04:58:15.204Z,25.77
2022-12-16T05:01:01.093Z,26.42
2022-12-16T05:03:47.328Z,24.20
2022-12-16T05:06:33.061Z,25.30
2022-12-16T05:09:18.726Z,28.88
2022-12-16T05:12:04.186Z,26.85
2022-12-16T05:14:49.615Z,29.35
2022-12-16T05:17:35.147Z,27.50
2022-12-16T05:20:20.709Z,27.65
2022-12-16T05:23:06.126Z,26.40
2022-12-16T05:25:51.748Z,30.38
2022-12-16T05:28:37.333Z,25.88
2022-12-16T05:31:23.000Z,25.65
2022-12-16T05:34:08.316Z,26.92
2022-12-16T05:36:53.822Z,29.45
2022-12-16T05:39:39.372Z,25.65
2022-12-16T05:42:24.843Z,29.63
2022-12-16T05:45:10.347Z,25.02
2022-12-16T05:47:55.784Z,27.45
2022-12-16T05:50:41.135Z,29.15
2022-12-16T05:53:26.654Z,28.70
2022-12-16T05:56:12.156Z,29.30
2022-12-16T05:58:57.780Z,28.95
2022-12-16T06:01:43.299Z,30.80
2022-12-16T06:04:28.751Z,30.75
2022-12-16T06:07:14.162Z,28.23
2022-12-16T06:09:59.707Z,30.02
2022-12-16T06:12:45.175Z,29.13
2022-12-16T06:15:30.611Z,30.40
2022-12-16T06:18:26.564Z,26.85
2022-12-16T06:21:12.181Z,30.88
2022-12-16T06:23:57.661Z,26.95
2022-12-16T06:26:44.074Z,28.55
2022-12-16T06:29:29.668Z,27.90
2022-12-16T06:32:15.259Z,30.15
2022-12-16T06:35:00.616Z,27.65
2022-12-16T06:37:46.406Z,28.05
2022-12-16T06:40:31.931Z,31.45
2022-12-16T06:43:17.707Z,28.95
2022-12-16T06:46:03.416Z,30.35
2022-12-16T06:48:48.720Z,30.50
2022-12-16T06:51:34.368Z,29.08
2022-12-16T06:54:19.992Z,28.90
2022-12-16T06:57:05.661Z,29.38
2022-12-16T06:59:51.337Z,29.38
2022-12-16T07:02:36.978Z,31.80
2022-12-16T07:05:23.387Z,27.65
2022-12-16T07:08:09.945Z,27.10
2022-12-16T07:11:00.374Z,28.75
2022-12-16T07:13:54.316Z,31.30
2022-12-16T07:16:39.990Z,28.90
2022-12-16T07:19:25.438Z,26.63
2022-12-16T07:22:10.815Z,30.45
2022-12-16T07:24:56.242Z,28.60
2022-12-16T07:27:41.413Z,28.20
2022-12-16T07:30:27.237Z,28.67
2022-12-16T07:33:12.618Z,30.48
2022-12-16T07:36:12.464Z,29.02
2022-12-16T07:38:57.962Z,27.20
2022-12-16T07:41:43.343Z,28.40
2022-12-16T07:44:28.985Z,29.80
2022-12-16T07:47:14.205Z,28.48
2022-12-16T07:49:59.718Z,28.90
2022-12-16T07:52:45.361Z,27.00
2022-12-16T07:55:30.720Z,28.63
2022-12-16T07:58:16.316Z,30.75
2022-12-16T08:01:06.369Z,27.05
2022-12-16T08:03:54.902Z,30.02
2022-12-16T08:06:41.361Z,28.50
2022-12-16T08:09:26.638Z,29.60
2022-12-16T08:12:12.172Z,26.70
2022-12-16T08:14:57.732Z,26.80
2022-12-16T08:17:43.335Z,27.33
2022-12-16T08:20:28.980Z,27.35
2022-12-16T08:23:14.479Z,28.40
2022-12-16T08:25:59.928Z,25.17
2022-12-16T08:28:45.329Z,28.33
2022-12-16T08:31:30.805Z,26.35
2022-12-16T08:34:16.477Z,27.52
2022-12-16T08:37:01.657Z,27.10
2022-12-16T08:39:54.869Z,27.13
2022-12-16T08:42:52.464Z,26.55
2022-12-16T08:45:38.577Z,28.25
2022-12-16T08:48:23.919Z,27.00
2022-12-16T08:51:09.595Z,27.73
2022-12-16T08:53:55.121Z,28.52
2022-12-16T08:56:40.555Z,29.40
2022-12-16T08:59:26.062Z,29.27
2022-12-16T09:02:11.847Z,26.17
2022-12-16T09:04:57.614Z,27.30
2022-12-16T09:07:43.360Z,27.80
2022-12-16T09:10:30.459Z,28.30
2022-12-16T09:13:25.131Z,29.30
2022-12-16T09:16:15.725Z,25.10
2022-12-16T09:19:03.236Z,25.58
2022-12-16T09:21:48.712Z,25.90
2022-12-16T09:24:34.233Z,26.67
2022-12-16T09:27:20.029Z,24.85
2022-12-16T09:30:05.496Z,25.48
2022-12-16T09:32:50.962Z,26.90
2022-12-16T09:35:36.610Z,23.98
2022-12-16T09:38:21.994Z,24.10
2022-12-16T09:41:07.472Z,23.48
2022-12-16T09:44:02.680Z,23.45
2022-12-16T09:47:08.190Z,23.15
2022-12-16T09:50:06.782Z,22.48
2022-12-16T09:52:59.397Z,22.60
2022-12-16T09:56:01.125Z,23.15
2022-12-16T09:58:53.848Z,24.25
2022-12-16T10:01:41.555Z,22.13
2022-12-16T10:04:26.905Z,22.00
2022-12-16T10:07:17.211Z,25.02
2022-12-16T10:10:31.060Z,22.98
2022-12-16T10:13:41.337Z,24.60
2022-12-16T10:16:45.633Z,24.48
2022-12-16T10:19:49.919Z,23.17
2022-12-16T10:22:55.483Z,23.52
2022-12-16T10:26:07.439Z,23.20
2022-12-16T10:29:07.793Z,23.17
2022-12-16T10:31:55.879Z,24.15
2022-12-16T10:34:48.039Z,21.08
2022-12-16T10:37:39.188Z,22.60
2022-12-16T10:40:26.020Z,23.95
2022-12-16T10:43:40.144Z,23.73
2022-12-16T10:46:33.974Z,24.38
2022-12-16T10:49:19.418Z,23.85
2022-12-16T10:52:09.281Z,22.15
2022-12-16T10:55:01.163Z,21.88
2022-12-16T10:58:11.667Z,20.98
2022-12-16T11:01:09.087Z,23.58
2022-12-16T11:03:59.384Z,24.42
2022-12-16T11:06:58.017Z,25.92
2022-12-16T11:09:53.951Z,24.00
2022-12-16T11:12:47.424Z,23.33
2022-12-16T11:15:42.175Z,23.42
2022-12-16T11:18:39.385Z,24.20
2022-12-16T11:21:34.413Z,21.63
2022-12-16T11:24:28.659Z,23.80
2022-12-16T11:27:16.505Z,24.85
2022-12-16T11:30:23.369Z,22.90
2022-12-16T11:33:16.012Z,23.20
2022-12-16T11:36:06.397Z,23.58
2022-12-16T11:39:04.385Z,24.25
2022-12-16T11:42:01.991Z,21.92
2022-12-16T11:44:58.173Z,24.55
2022-12-16T11:47:46.435Z,24.30
2022-12-16T11:50:35.889Z,22.75
2022-12-16T11:53:24.022Z,21.92
2022-12-16T11:56:16.222Z,20.65
2022-12-16T11:59:07.259Z,20.30
2022-12-16T12:02:01.443Z,20.55
2022-12-16T12:04:46.947Z,21.75
2022-12-16T12:07:45.895Z,20.77
2022-12-16T12:10:53.183Z,22.25
2022-12-16T12:14:39.242Z,20.17
2022-12-16T12:17:33.668Z,20.08
2022-12-16T12:20:40.986Z,22.20
2022-12-16T12:23:43.749Z,20.55
2022-12-16T12:26:36.496Z,21.25
2022-12-16T12:29:30.716Z,23.02
2022-12-16T12:32:23.399Z,22.33
2022-12-16T12:35:40.997Z,21.15
2022-12-16T12:38:41.868Z,20.75
2022-12-16T12:41:47.156Z,19.40
2022-12-16T12:45:07.021Z,18.23
2022-12-16T12:48:10.342Z,21.48
2022-12-16T12:51:12.710Z,17.60
2022-12-16T12:54:12.324Z,18.80
2022-12-16T12:57:08.406Z,19.27
2022-12-16T13:00:15.698Z,18.60
2022-12-16T13:03:18.992Z,18.58
2022-12-16T13:06:04.794Z,17.23
2022-12-16T13:08:56.362Z,16.85
2022-12-16T13:11:43.109Z,19.08
2022-12-16T13:15:07.518Z,18.80
2022-12-16T13:18:18.821Z,18.48
2022-12-16T13:21:15.239Z,17.15
2022-12-16T13:24:04.412Z,19.92
2022-12-16T13:26:52.760Z,15.90
2022-12-16T13:29:49.818Z,16.77
2022-12-16T13:32:42.099Z,17.65
2022-12-16T13:35:27.685Z,17.85
2022-12-16T13:38:14.116Z,19.20
2022-12-16T13:41:22.384Z,19.35
2022-12-16T13:44:07.936Z,18.00
2022-12-16T13:47:06.323Z,19.75
2022-12-16T13:49:54.418Z,17.38
2022-12-16T13:53:07.121Z,18.17
2022-12-16T13:55:59.034Z,16.08
2022-12-16T13:59:06.666Z,17.52
2022-12-16T14:02:15.825Z,17.95
2022-12-16T14:05:06.075Z,16.15
2022-12-16T14:08:07.778Z,17.55
2022-12-16T14:11:00.035Z,16.27
2022-12-16T14:13:48.433Z,15.90
2022-12-16T14:17:10.866Z,18.35
2022-12-16T14:20:24.235Z,15.90
2022-12-16T14:23:55.288Z,15.60
2022-12-16T14:26:34.380Z,16.30
2022-12-16T14:29:21.962Z,13.88
2022-12-16T14:32:07.411Z,16.65
2022-12-16T14:34:56.405Z,15.75
2022-12-16T14:37:53.599Z,15.05
2022-12-16T14:40:40.235Z,16.27
2022-12-16T14:43:37.842Z,14.00
2022-12-16T14:46:23.808Z,16.92
2022-12-16T14:49:10.376Z,13.77
2022-12-16T14:51:56.941Z,16.27
2022-12-16T14:54:48.718Z,15.70
2022-12-16T14:57:37.785Z,16.98
2022-12-16T15:00:38.884Z,15.73
2022-12-16T15:03:43.027Z,18.13
2022-12-16T15:06:40.077Z,17.90
2022-12-16T15:09:30.007Z,18.08
2022-12-16T15:12:15.498Z,18.23
2022-12-16T15:15:01.189Z,18.40
2022-12-16T15:18:08.034Z,17.75
2022-12-16T15:20:56.617Z,17.80
2022-12-16T15:23:52.687Z,18.70
2022-12-16T15:26:46.667Z,17.70
2022-12-16T15:29:56.017Z,17.83
2022-12-16T15:32:44.064Z,16.85
2022-12-16T15:35:41.604Z,18.05
2022-12-16T15:38:42.145Z,20.05
2022-12-16T15:41:48.893Z,18.92
2022-12-16T15:44:45.794Z,16.48
2022-12-16T15:47:50.245Z,17.05
2022-12-16T15:50:39.047Z,17.20
2022-12-16T15:53:56.841Z,14.77
2022-12-16T15:57:00.800Z,20.05
2022-12-16T15:59:52.849Z,16.40
2022-12-16T16:02:49.551Z,16.05
2022-12-16T16:05:42.196Z,16.25
2022-12-16T16:08:29.769Z,18.25
2022-12-16T16:11:15.818Z,18.17
2022-12-16T16:14:07.202Z,19.92
2022-12-16T16:16:55.067Z,16.58
2022-12-16T16:19:45.165Z,17.42
2022-12-16T16:22:36.504Z,18.05
2022-12-16T16:25:22.112Z,17.58
2022-12-16T16:28:07.540Z,16.20
2022-12-16T16:30:53.157Z,16.25
2022-12-16T16:33:38.384Z,17.63
2022-12-16T16:36:33.997Z,17.92
2022-12-16T16:39:20.893Z,17.05
2022-12-16T16:42:06.502Z,17.83
2022-12-16T16:44:52.023Z,17.83
2022-12-16T16:47:37.632Z,17.70
2022-12-16T16:50:23.504Z,18.52
2022-12-16T16:53:09.239Z,20.58
2022-12-16T16:55:54.597Z,16.27
2022-12-16T16:58:47.336Z,16.83
2022-12-16T17:01:35.213Z,19.52
2022-12-16T17:04:21.100Z,18.10
2022-12-16T17:07:06.585Z,16.95
2022-12-16T17:09:52.146Z,16.77
2022-12-16T17:12:43.866Z,17.20
2022-12-16T17:15:43.038Z,16.05
2022-12-16T17:18:28.754Z,16.83
2022-12-16T17:21:14.528Z,17.30
2022-12-16T17:24:00.424Z,15.32
2022-12-16T17:26:45.954Z,15.60
2022-12-16T17:29:39.937Z,19.15
2022-12-16T17:32:26.030Z,15.43
2022-12-16T17:35:11.242Z,15.98
2022-12-16T17:37:57.211Z,16.23
2022-12-16T17:40:42.638Z,15.35
2022-12-16T17:43:28.168Z,16.50
2022-12-16T17:46:16.346Z,17.08
2022-12-16T17:49:02.220Z,16.42
2022-12-16T17:51:47.688Z,14.80
2022-12-16T17:54:33.268Z,16.25
2022-12-16T17:57:18.600Z,15.10
2022-12-16T18:00:04.134Z,15.82
2022-12-16T18:02:49.676Z,15.02
2022-12-16T18:05:42.482Z,16.35
2022-12-16T18:08:43.573Z,15.05
2022-12-16T18:11:29.151Z,16.40
2022-12-16T18:14:14.580Z,14.50
2022-12-16T18:17:00.067Z,14.93
2022-12-16T18:19:45.725Z,13.88
2022-12-16T18:22:31.197Z,15.20
2022-12-16T18:25:16.654Z,15.57
2022-12-16T18:28:02.020Z,18.83
2022-12-16T18:30:47.564Z,18.98
2022-12-16T18:33:33.427Z,15.48
2022-12-16T18:36:19.208Z,17.02
2022-12-16T18:39:04.718Z,16.08
2022-12-16T18:41:50.260Z,16.35
2022-12-16T18:44:35.829Z,14.63
2022-12-16T18:47:21.314Z,16.33
2022-12-16T18:50:06.574Z,15.07
2022-12-16T18:52:52.092Z,14.27
2022-12-16T18:55:37.484Z,15.00
2022-12-16T19:01:30.265Z,15.00
2022-12-16T19:04:16.207Z,14.98
2022-12-16T19:07:01.432Z,15.60
2022-12-16T19:09:46.991Z,16.50
2022-12-16T19:12:32.420Z,15.05
2022-12-16T19:15:17.845Z,14.05
2022-12-16T19:18:03.231Z,14.98
2022-12-16T19:20:48.770Z,14.90
2022-12-16T19:23:34.437Z,18.30
2022-12-16T19:26:20.447Z,17.17
2022-12-16T19:29:05.852Z,15.60
2022-12-16T19:31:51.858Z,16.85
2022-12-16T19:34:37.208Z,17.17
2022-12-16T19:37:22.613Z,17.52
2022-12-16T19:40:08.193Z,16.05
2022-12-16T19:42:55.768Z,17.60
2022-12-16T19:45:41.266Z,16.30
2022-12-16T19:48:26.643Z,15.77
2022-12-16T19:51:16.296Z,16.52
2022-12-16T19:54:03.712Z,15.82
2022-12-16T19:56:49.548Z,16.88
2022-12-16T19:59:34.962Z,14.90
2022-12-16T20:02:20.487Z,17.15
2022-12-16T20:05:06.205Z,15.68
2022-12-16T20:07:51.832Z,15.55
2022-12-16T20:10:37.367Z,16.45
2022-12-16T20:13:30.375Z,15.43
2022-12-16T20:16:26.543Z,19.52
2022-12-16T20:19:12.016Z,15.52
2022-12-16T20:21:59.716Z,14.55
2022-12-16T20:24:48.573Z,15.73
2022-12-16T20:27:34.077Z,14.35
2022-12-16T20:30:19.545Z,16.00
2022-12-16T20:33:06.074Z,16.38
2022-12-16T20:35:51.339Z,16.40
2022-12-16T20:38:36.810Z,15.65
2022-12-16T20:41:23.118Z,13.80
2022-12-16T20:44:09.538Z,18.15
2022-12-16T20:46:56.255Z,17.35
2022-12-16T20:49:42.159Z,16.00
2022-12-16T20:52:27.701Z,15.80
2022-12-16T20:55:13.103Z,16.10
2022-12-16T20:57:58.523Z,15.77
2022-12-16T21:00:44.075Z,16.42
2022-12-16T21:03:29.194Z,17.58
2022-12-16T21:06:14.731Z,17.88
2022-12-16T21:09:00.236Z,18.30
2022-12-16T21:11:45.346Z,15.93
2022-12-16T21:14:30.749Z,16.55
2022-12-16T21:17:18.703Z,16.13
2022-12-16T21:20:23.655Z,15.60
2022-12-16T21:23:20.540Z,16.10
2022-12-16T21:26:06.024Z,16.13
2022-12-16T21:28:51.782Z,16.58
2022-12-16T21:31:37.872Z,16.20
2022-12-16T21:34:23.620Z,16.75
2022-12-16T21:37:10.224Z,16.58
2022-12-16T21:39:56.668Z,17.73
2022-12-16T21:42:44.103Z,16.55
2022-12-16T21:45:30.789Z,18.25
2022-12-16T21:48:16.280Z,16.92
2022-12-16T21:51:01.704Z,19.08
2022-12-16T21:53:47.622Z,17.55
2022-12-16T21:56:33.425Z,18.55
2022-12-16T21:59:19.023Z,17.73
2022-12-16T22:02:04.917Z,18.65
2022-12-16T22:04:50.349Z,17.67
2022-12-16T22:07:35.819Z,17.27
2022-12-16T22:10:22.854Z,16.45
2022-12-16T22:13:08.334Z,19.38
2022-12-16T22:15:53.806Z,18.42
2022-12-16T22:18:44.783Z,17.92
2022-12-16T22:21:30.293Z,18.25
2022-12-16T22:24:15.746Z,15.95
2022-12-16T22:27:01.208Z,17.17
2022-12-16T22:29:46.848Z,17.13
2022-12-16T22:32:32.302Z,16.40
2022-12-16T22:35:17.683Z,16.98
2022-12-16T22:38:03.111Z,16.70
2022-12-16T22:40:48.605Z,18.23
2022-12-16T22:43:34.574Z,17.17
2022-12-16T22:46:21.081Z,17.40
2022-12-16T22:49:06.410Z,17.85
2022-12-16T22:51:52.439Z,15.93
2022-12-16T22:54:39.249Z,15.82
2022-12-16T22:57:24.742Z,17.10
2022-12-16T23:00:10.215Z,16.65
2022-12-16T23:02:55.715Z,16.08
2022-12-16T23:05:42.264Z,16.25
2022-12-16T23:08:27.684Z,15.40
2022-12-16T23:11:17.771Z,14.90
2022-12-16T23:14:03.236Z,17.17
2022-12-16T23:16:48.787Z,18.13
2022-12-16T23:19:34.259Z,18.20
2022-12-16T23:22:19.715Z,16.20
2022-12-16T23:25:05.192Z,16.30
2022-12-16T23:27:50.943Z,17.13
2022-12-16T23:30:37.539Z,15.68
2022-12-16T23:33:23.204Z,15.77
2022-12-16T23:36:08.609Z,16.95
2022-12-16T23:38:54.944Z,17.35
2022-12-16T23:41:41.864Z,17.00
2022-12-16T23:44:27.298Z,16.00
2022-12-16T23:47:12.655Z,16.23
2022-12-16T23:49:57.992Z,17.45
2022-12-16T23:52:43.307Z,16.13
2022-12-16T23:55:29.083Z,18.30
2022-12-16T23:58:22.638Z,17.08
